UAL397 TNCM-KMIA
Flight info
| Callsign | UAL397 |
|---|---|
| Flight time | N/A |
| Altitude | 36000 |
| Route | MODOR2 JUICE B520 STT RTE6 SJU ACONY Y308 MADIZ VIICE2 |
| Aircraft | B772/H-VGDW/C |
Departure
| Time | 2026-04-30 21:22 |
|---|---|
| Airport | Princess Juliana International Airport (TNCM) |
Arrival
| Time | N/A |
|---|---|
| Airport | Miami International Airport (KMIA) |
| Time | Latitude | Longitude | Altitude | Speed | Heading |
|---|---|---|---|---|---|
| 2026-04-30 20:57 | 18.04321 | -63.11360 | 27 ft | 0 kts | 351° |
| 2026-04-30 21:13 | 18.04312 | -63.11359 | 27 ft | 2 kts | 352° |
| 2026-04-30 21:13 | 18.04297 | -63.11356 | 27 ft | 2 kts | 352° |
| 2026-04-30 21:13 | 18.04282 | -63.11354 | 27 ft | 2 kts | 351° |
| 2026-04-30 21:14 | 18.04272 | -63.11353 | 27 ft | 1 kts | 351° |
| 2026-04-30 21:14 | 18.04258 | -63.11348 | 27 ft | 2 kts | 322° |
| 2026-04-30 21:14 | 18.04249 | -63.11337 | 27 ft | 2 kts | 295° |
| 2026-04-30 21:14 | 18.04245 | -63.11322 | 27 ft | 2 kts | 269° |
| 2026-04-30 21:15 | 18.04245 | -63.11315 | 27 ft | 1 kts | 261° |
| 2026-04-30 21:15 | 18.04246 | -63.11312 | 27 ft | 0 kts | 261° |
| 2026-04-30 21:18 | 18.04245 | -63.11314 | 27 ft | 2 kts | 261° |
| 2026-04-30 21:18 | 18.04234 | -63.11391 | 27 ft | 14 kts | 261° |
| 2026-04-30 21:18 | 18.04212 | -63.11480 | 27 ft | 11 kts | 239° |
| 2026-04-30 21:18 | 18.04159 | -63.11555 | 27 ft | 12 kts | 231° |
| 2026-04-30 21:19 | 18.04104 | -63.11627 | 28 ft | 12 kts | 231° |
| 2026-04-30 21:19 | 18.04063 | -63.11708 | 28 ft | 15 kts | 257° |
| 2026-04-30 21:19 | 18.04046 | -63.11815 | 28 ft | 13 kts | 262° |
| 2026-04-30 21:19 | 18.04042 | -63.11839 | 28 ft | 6 kts | 262° |
| 2026-04-30 21:20 | 18.04023 | -63.11906 | 28 ft | 15 kts | 241° |
| 2026-04-30 21:20 | 18.03974 | -63.11962 | 28 ft | 7 kts | 188° |
| 2026-04-30 21:20 | 18.03944 | -63.11932 | 29 ft | 6 kts | 84° |
| 2026-04-30 21:20 | 18.03950 | -63.11888 | 28 ft | 5 kts | 82° |
| 2026-04-30 21:21 | 18.03953 | -63.11874 | 28 ft | 0 kts | 82° |
| 2026-04-30 21:21 | 18.04101 | -63.10841 | 27 ft | 145 kts | 82° |
| 2026-04-30 21:22 | 18.04276 | -63.09648 | 343 ft | 178 kts | 86° |
| 2026-04-30 21:22 | 18.01356 | -63.07942 | 2138 ft | 206 kts | 188° |
| 2026-04-30 21:23 | 17.99920 | -63.08068 | 2416 ft | 210 kts | 178° |
| 2026-04-30 21:23 | 17.98445 | -63.08084 | 2821 ft | 211 kts | 178° |
| 2026-04-30 21:23 | 17.95487 | -63.08110 | 3536 ft | 215 kts | 178° |
| 2026-04-30 21:24 | 17.93960 | -63.08127 | 3853 ft | 219 kts | 178° |
| 2026-04-30 21:24 | 17.92426 | -63.08142 | 3933 ft | 225 kts | 178° |
| 2026-04-30 21:24 | 17.90773 | -63.08157 | 3995 ft | 246 kts | 178° |
| 2026-04-30 21:24 | 17.88996 | -63.08175 | 4008 ft | 259 kts | 178° |
| 2026-04-30 21:25 | 17.85379 | -63.08596 | 4100 ft | 272 kts | 206° |
| 2026-04-30 21:25 | 17.83974 | -63.09920 | 4775 ft | 274 kts | 239° |
| 2026-04-30 21:25 | 17.83367 | -63.11754 | 5509 ft | 272 kts | 266° |
| 2026-04-30 21:26 | 17.84758 | -63.15266 | 6708 ft | 271 kts | 324° |
| 2026-04-30 21:26 | 17.86430 | -63.16170 | 7359 ft | 270 kts | 340° |
| 2026-04-30 21:27 | 17.89940 | -63.17543 | 8700 ft | 273 kts | 338° |
| 2026-04-30 21:27 | 17.91542 | -63.18644 | 9293 ft | 278 kts | 314° |
| 2026-04-30 21:27 | 17.92687 | -63.20278 | 9915 ft | 281 kts | 300° |
| 2026-04-30 21:28 | 17.94445 | -63.24072 | 10746 ft | 304 kts | 294° |
| 2026-04-30 21:28 | 17.95345 | -63.26134 | 11041 ft | 322 kts | 294° |
| 2026-04-30 21:28 | 17.97307 | -63.30609 | 11708 ft | 354 kts | 294° |
| 2026-04-30 21:29 | 17.98361 | -63.33011 | 12075 ft | 368 kts | 294° |
| 2026-04-30 21:29 | 18.01680 | -63.40577 | 13829 ft | 387 kts | 293° |
| 2026-04-30 21:30 | 18.03918 | -63.45684 | 15322 ft | 388 kts | 293° |
| 2026-04-30 21:31 | 18.07318 | -63.53452 | 17216 ft | 394 kts | 292° |
| 2026-04-30 21:31 | 18.09609 | -63.58689 | 18367 ft | 398 kts | 292° |
| 2026-04-30 21:32 | 18.11928 | -63.63999 | 19354 ft | 405 kts | 292° |
| 2026-04-30 21:32 | 18.12975 | -63.66781 | 19810 ft | 406 kts | 284° |
| 2026-04-30 21:32 | 18.13598 | -63.69660 | 20278 ft | 408 kts | 278° |
| 2026-04-30 21:32 | 18.14099 | -63.72590 | 20816 ft | 409 kts | 277° |
| 2026-04-30 21:33 | 18.14591 | -63.75509 | 21322 ft | 410 kts | 277° |
| 2026-04-30 21:33 | 18.15595 | -63.81468 | 22196 ft | 417 kts | 277° |
| 2026-04-30 21:33 | 18.16100 | -63.84470 | 22591 ft | 421 kts | 277° |
| 2026-04-30 21:34 | 18.16611 | -63.87508 | 23091 ft | 422 kts | 277° |
| 2026-04-30 21:34 | 18.17623 | -63.93534 | 24087 ft | 423 kts | 277° |
| 2026-04-30 21:34 | 18.18131 | -63.96561 | 24516 ft | 424 kts | 277° |
| 2026-04-30 21:35 | 18.18647 | -63.99642 | 24937 ft | 426 kts | 277° |
| 2026-04-30 21:35 | 18.19162 | -64.02715 | 25372 ft | 428 kts | 278° |
| 2026-04-30 21:35 | 18.19672 | -64.05766 | 25806 ft | 429 kts | 278° |
| 2026-04-30 21:35 | 18.20191 | -64.08869 | 26212 ft | 431 kts | 278° |
| 2026-04-30 21:36 | 18.20713 | -64.12000 | 26599 ft | 433 kts | 278° |
| 2026-04-30 21:36 | 18.21228 | -64.15086 | 26999 ft | 435 kts | 278° |
| 2026-04-30 21:37 | 18.22796 | -64.24505 | 28178 ft | 439 kts | 278° |
| 2026-04-30 21:37 | 18.23324 | -64.27686 | 28580 ft | 440 kts | 278° |
| 2026-04-30 21:37 | 18.23845 | -64.30829 | 28922 ft | 441 kts | 279° |
| 2026-04-30 21:37 | 18.24368 | -64.33983 | 29262 ft | 443 kts | 279° |
| 2026-04-30 21:38 | 18.24900 | -64.37195 | 29655 ft | 443 kts | 278° |
| 2026-04-30 21:38 | 18.25426 | -64.40371 | 30150 ft | 441 kts | 279° |
| 2026-04-30 21:38 | 18.25946 | -64.43521 | 30769 ft | 435 kts | 279° |
| 2026-04-30 21:38 | 18.26457 | -64.46612 | 31380 ft | 429 kts | 279° |
| 2026-04-30 21:39 | 18.26964 | -64.49689 | 31862 ft | 425 kts | 279° |
| 2026-04-30 21:39 | 18.27468 | -64.52747 | 32193 ft | 425 kts | 279° |
| 2026-04-30 21:39 | 18.27974 | -64.55824 | 32506 ft | 425 kts | 279° |
| 2026-04-30 21:39 | 18.28472 | -64.58858 | 32878 ft | 423 kts | 279° |
| 2026-04-30 21:40 | 18.28973 | -64.61904 | 33356 ft | 419 kts | 278° |
| 2026-04-30 21:40 | 18.29460 | -64.64877 | 33845 ft | 415 kts | 279° |
| 2026-04-30 21:40 | 18.29954 | -64.67886 | 34256 ft | 413 kts | 278° |
| 2026-04-30 21:40 | 18.30437 | -64.70837 | 34679 ft | 411 kts | 278° |
| 2026-04-30 21:41 | 18.30916 | -64.73769 | 35042 ft | 409 kts | 278° |
| 2026-04-30 21:41 | 18.31401 | -64.76736 | 35290 ft | 410 kts | 278° |
| 2026-04-30 21:41 | 18.31881 | -64.79679 | 35545 ft | 410 kts | 277° |
| 2026-04-30 21:41 | 18.32361 | -64.82622 | 35777 ft | 410 kts | 277° |
| 2026-04-30 21:42 | 18.32842 | -64.85577 | 35937 ft | 411 kts | 277° |
| 2026-04-30 21:42 | 18.33328 | -64.88569 | 35939 ft | 414 kts | 277° |
| 2026-04-30 21:42 | 18.34300 | -64.94551 | 35932 ft | 420 kts | 277° |
| 2026-04-30 21:43 | 18.35297 | -65.00700 | 35934 ft | 426 kts | 277° |
| 2026-04-30 21:43 | 18.36096 | -65.06934 | 35921 ft | 431 kts | 274° |
| 2026-04-30 21:44 | 18.36657 | -65.13211 | 35928 ft | 435 kts | 274° |
| 2026-04-30 21:44 | 18.37244 | -65.19568 | 35926 ft | 434 kts | 274° |
| 2026-04-30 21:45 | 18.37837 | -65.25914 | 35924 ft | 435 kts | 274° |
| 2026-04-30 21:45 | 18.38432 | -65.32238 | 35922 ft | 435 kts | 274° |
| 2026-04-30 21:46 | 18.39016 | -65.38437 | 35921 ft | 435 kts | 274° |
| 2026-04-30 21:46 | 18.39612 | -65.44779 | 35917 ft | 436 kts | 274° |
| 2026-04-30 21:47 | 18.40204 | -65.51096 | 35917 ft | 435 kts | 274° |
| 2026-04-30 21:47 | 18.40798 | -65.57449 | 35916 ft | 436 kts | 274° |
| 2026-04-30 21:48 | 18.41387 | -65.63760 | 35918 ft | 436 kts | 274° |
| 2026-04-30 21:48 | 18.41980 | -65.70149 | 35943 ft | 435 kts | 274° |
| 2026-04-30 21:49 | 18.42568 | -65.76510 | 35946 ft | 436 kts | 274° |
| 2026-04-30 21:49 | 18.43153 | -65.82851 | 35941 ft | 436 kts | 274° |
| 2026-04-30 21:50 | 18.43739 | -65.89224 | 35945 ft | 436 kts | 273° |
| 2026-04-30 21:50 | 18.44949 | -65.95528 | 35948 ft | 440 kts | 285° |
| 2026-04-30 21:51 | 18.47674 | -66.01331 | 35948 ft | 448 kts | 299° |
| 2026-04-30 21:51 | 18.51840 | -66.06358 | 35949 ft | 460 kts | 310° |
| 2026-04-30 21:52 | 18.56504 | -66.11026 | 35945 ft | 460 kts | 310° |
| 2026-04-30 21:52 | 18.61142 | -66.15690 | 35945 ft | 461 kts | 310° |
| 2026-04-30 21:53 | 18.65799 | -66.20392 | 35940 ft | 460 kts | 310° |
| 2026-04-30 21:53 | 18.70421 | -66.25069 | 35939 ft | 460 kts | 309° |
| 2026-04-30 21:54 | 18.75049 | -66.29763 | 35936 ft | 461 kts | 310° |
| 2026-04-30 21:54 | 18.79714 | -66.34499 | 35937 ft | 461 kts | 309° |
| 2026-04-30 21:55 | 18.84355 | -66.39215 | 35931 ft | 460 kts | 309° |
| 2026-04-30 21:55 | 18.88973 | -66.43914 | 35930 ft | 462 kts | 309° |
| 2026-04-30 21:56 | 18.93231 | -66.48974 | 35925 ft | 451 kts | 298° |
| 2026-04-30 21:56 | 18.96346 | -66.54694 | 35920 ft | 448 kts | 294° |
| 2026-04-30 21:57 | 18.99337 | -66.60461 | 35916 ft | 447 kts | 294° |
| 2026-04-30 21:57 | 19.02333 | -66.66241 | 35924 ft | 446 kts | 293° |
| 2026-04-30 21:58 | 19.05317 | -66.72006 | 35929 ft | 446 kts | 293° |
| 2026-04-30 21:58 | 19.08309 | -66.77792 | 35931 ft | 448 kts | 293° |
| 2026-04-30 21:59 | 19.11297 | -66.83575 | 35927 ft | 448 kts | 293° |
| 2026-04-30 22:00 | 19.15784 | -66.92269 | 35931 ft | 447 kts | 294° |
| 2026-04-30 22:00 | 19.20243 | -67.00922 | 35926 ft | 448 kts | 294° |
| 2026-04-30 22:01 | 19.23239 | -67.06741 | 35925 ft | 447 kts | 293° |
| 2026-04-30 22:01 | 19.26219 | -67.12537 | 35927 ft | 449 kts | 294° |
| 2026-04-30 22:02 | 19.29190 | -67.18321 | 35926 ft | 450 kts | 294° |
| 2026-04-30 22:02 | 19.32178 | -67.24143 | 35923 ft | 449 kts | 294° |
| 2026-04-30 22:03 | 19.35146 | -67.29930 | 35923 ft | 449 kts | 294° |
| 2026-04-30 22:03 | 19.38039 | -67.35579 | 35919 ft | 450 kts | 294° |
| 2026-04-30 22:04 | 19.41020 | -67.41403 | 35920 ft | 450 kts | 294° |
| 2026-04-30 22:05 | 19.45508 | -67.50187 | 35921 ft | 452 kts | 294° |
| 2026-04-30 22:05 | 19.48492 | -67.56031 | 35920 ft | 452 kts | 294° |
| 2026-04-30 22:06 | 19.51488 | -67.61906 | 35918 ft | 451 kts | 294° |
| 2026-04-30 22:06 | 19.55977 | -67.70720 | 35934 ft | 452 kts | 294° |
| 2026-04-30 22:07 | 19.58958 | -67.76580 | 35930 ft | 453 kts | 294° |
| 2026-04-30 22:07 | 19.61933 | -67.82436 | 35930 ft | 453 kts | 294° |
| 2026-04-30 22:08 | 19.64941 | -67.88361 | 35934 ft | 453 kts | 294° |